Time;durP1;ratioP1;P1;durP2;ratioP2;P2;SDS_P1;SDS_P2;PMS_P1;PMS_P2;Temp;Humidity;BMP_temperature;BMP_pressure;BME280_temperature;BME280_humidity;BME280_pressure;Samples;Min_cycle;Max_cycle;Signal;HPM_P1;HPM_P2
2021/10/17 00:00:33;;;;;;;11.73;4.10;;;12.60;99.90;;;;;;5012580;28;20218;-91
2021/10/17 00:03:00;;;;;;;17.97;4.73;;;12.60;99.90;;;;;;5014729;28;20212;-89
2021/10/17 00:05:29;;;;;;;8.93;3.27;;;12.60;99.90;;;;;;5024696;28;20770;-89
2021/10/17 00:07:57;;;;;;;10.50;3.53;;;12.60;99.90;;;;;;5031013;28;20209;-91
2021/10/17 00:10:25;;;;;;;6.83;3.77;;;12.60;99.90;;;;;;5030618;28;20566;-92
2021/10/17 00:12:55;;;;;;;9.20;3.70;;;12.60;99.90;;;;;;5030433;28;20213;-88
2021/10/17 00:15:23;;;;;;;11.43;3.90;;;12.60;99.90;;;;;;5031134;28;20218;-90
2021/10/17 00:17:51;;;;;;;10.80;3.90;;;12.60;99.90;;;;;;5031339;28;20209;-92
2021/10/17 00:20:21;;;;;;;7.53;3.60;;;12.60;99.90;;;;;;5030778;28;20194;-90
2021/10/17 00:22:48;;;;;;;15.17;4.40;;;12.70;99.90;;;;;;5031130;28;20201;-91
2021/10/17 00:25:16;;;;;;;16.10;4.93;;;12.70;99.90;;;;;;5031748;28;20305;-89
2021/10/17 00:27:44;;;;;;;14.93;3.97;;;12.70;99.90;;;;;;5031613;28;20202;-91
2021/10/17 00:30:14;;;;;;;12.13;4.00;;;12.70;99.90;;;;;;5031323;28;20245;-91
2021/10/17 00:32:41;;;;;;;11.23;4.00;;;12.70;99.90;;;;;;5031482;28;20272;-91
2021/10/17 00:35:10;;;;;;;12.40;4.10;;;12.70;99.90;;;;;;5017650;28;20200;-91
2021/10/17 00:37:38;;;;;;;9.90;3.90;;;12.70;99.90;;;;;;5011761;28;20213;-92
2021/10/17 00:40:09;;;;;;;10.93;3.53;;;12.70;99.90;;;;;;5011006;28;20203;-88
2021/10/17 00:42:36;;;;;;;9.60;3.67;;;12.70;99.90;;;;;;5011779;28;20195;-91
2021/10/17 00:45:06;;;;;;;14.17;4.07;;;12.70;99.90;;;;;;5013207;28;20231;-92
2021/10/17 00:47:35;;;;;;;13.83;4.50;;;12.70;99.90;;;;;;5027886;28;20670;-92
2021/10/17 00:50:02;;;;;;;9.83;4.40;;;12.70;99.90;;;;;;5034684;28;20210;-92
2021/10/17 00:52:29;;;;;;;14.00;4.00;;;12.70;99.90;;;;;;5034940;28;20236;-88
2021/10/17 00:54:56;;;;;;;10.77;3.70;;;12.60;99.90;;;;;;5035029;28;20206;-90
2021/10/17 00:57:23;;;;;;;14.27;4.63;;;12.60;99.90;;;;;;5034678;28;20214;-91
2021/10/17 00:59:50;;;;;;;12.57;4.27;;;12.70;99.90;;;;;;5027628;28;20549;-87
2021/10/17 01:02:17;;;;;;;8.27;4.30;;;12.70;99.90;;;;;;5015146;28;20523;-89
2021/10/17 01:04:45;;;;;;;16.03;4.67;;;12.70;99.90;;;;;;5013120;28;20227;-90
2021/10/17 01:07:12;;;;;;;13.07;4.37;;;12.60;99.90;;;;;;5012959;28;20203;-92
2021/10/17 01:09:40;;;;;;;12.73;3.87;;;12.60;99.90;;;;;;5014330;28;20213;-88
2021/10/17 01:12:07;;;;;;;18.13;4.17;;;12.60;99.90;;;;;;5014626;28;20249;-91
2021/10/17 01:14:34;;;;;;;13.30;5.53;;;12.60;99.90;;;;;;5014140;28;20505;-87
2021/10/17 01:17:02;;;;;;;15.27;5.63;;;12.60;99.90;;;;;;5013758;28;20214;-86
2021/10/17 01:19:29;;;;;;;11.60;4.63;;;12.60;99.90;;;;;;5024552;28;20237;-89
2021/10/17 01:21:57;;;;;;;12.47;4.53;;;12.50;99.90;;;;;;5033151;28;20217;-90
2021/10/17 01:24:24;;;;;;;15.10;4.53;;;12.50;99.90;;;;;;5033098;28;20214;-91
2021/10/17 01:26:51;;;;;;;13.03;4.70;;;12.50;99.90;;;;;;5033473;28;20211;-89
2021/10/17 01:29:17;;;;;;;14.07;5.50;;;12.40;99.90;;;;;;5034868;28;20203;-87
2021/10/17 01:31:51;;;;;;;12.00;4.30;;;12.40;99.90;;;;;;5034585;28;20210;-89
2021/10/17 01:34:19;;;;;;;19.00;5.10;;;12.40;99.90;;;;;;5034159;28;20533;-91
2021/10/17 01:36:47;;;;;;;15.53;5.10;;;12.40;99.90;;;;;;5034461;28;20896;-90
2021/10/17 01:39:17;;;;;;;12.07;4.53;;;12.40;99.90;;;;;;5017540;28;20546;-86
2021/10/17 01:41:44;;;;;;;15.83;4.70;;;12.40;99.90;;;;;;5015405;28;20218;-88
2021/10/17 01:44:13;;;;;;;15.97;5.10;;;12.40;99.90;;;;;;5033612;28;20229;-91
2021/10/17 01:46:40;;;;;;;17.57;5.50;;;12.40;99.90;;;;;;5034123;28;20318;-90
2021/10/17 01:49:10;;;;;;;16.50;5.17;;;12.40;99.90;;;;;;5019306;28;20203;-88
2021/10/17 01:51:38;;;;;;;14.33;5.47;;;12.40;99.90;;;;;;5015268;28;20628;-89
2021/10/17 01:54:05;;;;;;;12.47;4.40;;;12.40;99.90;;;;;;5015711;28;20200;-91
2021/10/17 01:56:34;;;;;;;15.47;5.50;;;12.30;99.90;;;;;;5014553;28;20199;-92
2021/10/17 01:59:01;;;;;;;14.00;5.37;;;12.40;99.90;;;;;;5034061;28;20257;-93
2021/10/17 02:01:28;;;;;;;15.17;5.50;;;12.30;99.90;;;;;;5031825;28;20710;-92
2021/10/17 02:03:55;;;;;;;13.43;5.23;;;12.30;99.90;;;;;;5032750;28;20202;-90
2021/10/17 02:06:22;;;;;;;13.97;4.87;;;12.20;99.90;;;;;;5034287;28;20213;-90
2021/10/17 02:08:49;;;;;;;10.67;4.80;;;12.30;99.90;;;;;;5033587;28;20214;-93
2021/10/17 02:11:16;;;;;;;12.07;5.03;;;12.30;99.90;;;;;;5033599;28;20483;-92
2021/10/17 02:13:44;;;;;;;13.00;5.37;;;12.30;99.90;;;;;;5034263;28;20213;-92
2021/10/17 02:16:11;;;;;;;20.50;6.33;;;12.20;99.90;;;;;;5033350;28;20213;-93
2021/10/17 02:18:38;;;;;;;13.00;4.83;;;12.30;99.90;;;;;;5033034;28;20197;-92
2021/10/17 02:21:06;;;;;;;17.07;4.90;;;12.20;99.90;;;;;;5013720;28;20592;-91
2021/10/17 02:23:33;;;;;;;12.37;4.13;;;12.20;99.90;;;;;;5020902;28;20214;-89
2021/10/17 02:26:01;;;;;;;13.83;5.10;;;12.20;99.90;;;;;;5033388;28;20226;-89
2021/10/17 02:28:29;;;;;;;11.07;5.10;;;12.20;99.90;;;;;;5033620;28;20198;-86
2021/10/17 02:30:57;;;;;;;11.47;4.30;;;12.20;99.90;;;;;;5033474;28;20423;-93
2021/10/17 02:33:24;;;;;;;14.60;5.43;;;12.30;99.90;;;;;;5016791;28;20214;-89
2021/10/17 02:35:51;;;;;;;10.87;4.47;;;12.20;99.90;;;;;;5022781;28;20509;-91
2021/10/17 02:38:17;;;;;;;15.50;5.73;;;12.20;99.90;;;;;;5034095;28;20203;-92
2021/10/17 02:40:44;;;;;;;17.27;5.63;;;12.20;99.90;;;;;;5032860;28;20213;-90
2021/10/17 02:43:11;;;;;;;11.80;5.20;;;12.20;99.90;;;;;;5032853;28;20218;-89
2021/10/17 02:45:38;;;;;;;12.03;5.43;;;12.20;99.90;;;;;;5033216;28;20226;-89
2021/10/17 02:48:07;;;;;;;15.37;5.40;;;12.30;99.90;;;;;;5023674;28;20647;-90
2021/10/17 02:50:34;;;;;;;12.60;5.00;;;12.30;99.90;;;;;;5029716;28;20206;-89
2021/10/17 02:53:01;;;;;;;13.47;4.97;;;12.30;99.90;;;;;;5032928;28;20206;-94
2021/10/17 02:55:28;;;;;;;14.43;5.53;;;12.20;99.90;;;;;;5018622;28;20209;-91
2021/10/17 02:57:55;;;;;;;15.03;5.70;;;12.20;99.90;;;;;;5013390;28;20205;-91
2021/10/17 03:00:22;;;;;;;15.47;5.20;;;12.20;99.90;;;;;;5014199;28;20210;-89
2021/10/17 03:02:49;;;;;;;12.97;4.70;;;12.20;99.90;;;;;;5013005;28;20208;-89
2021/10/17 03:05:18;;;;;;;11.07;5.30;;;12.20;99.90;;;;;;5012496;28;20227;-86
2021/10/17 03:07:45;;;;;;;17.77;5.30;;;12.20;99.90;;;;;;5021464;28;20503;-88
2021/10/17 03:10:13;;;;;;;14.67;4.90;;;12.20;99.90;;;;;;5033108;28;20202;-89
2021/10/17 03:12:40;;;;;;;11.50;4.87;;;12.20;99.90;;;;;;5033321;28;20206;-91
2021/10/17 03:15:08;;;;;;;13.43;5.30;;;12.20;99.90;;;;;;5013120;28;20222;-90
2021/10/17 03:17:35;;;;;;;10.97;4.20;;;12.20;99.90;;;;;;5020077;28;20210;-91
2021/10/17 03:20:02;;;;;;;9.93;3.77;;;12.10;99.90;;;;;;5032350;28;20199;-90
2021/10/17 03:22:30;;;;;;;13.07;4.50;;;12.10;99.90;;;;;;5011611;28;20619;-88
2021/10/17 03:24:57;;;;;;;9.03;4.27;;;12.00;99.90;;;;;;5013044;28;20227;-89
2021/10/17 03:27:23;;;;;;;8.17;4.27;;;12.00;99.90;;;;;;5013302;28;20200;-89
2021/10/17 03:29:50;;;;;;;10.17;3.97;;;12.00;99.90;;;;;;5018562;28;20206;-88
2021/10/17 03:32:17;;;;;;;13.47;5.20;;;12.00;99.90;;;;;;5032353;28;20219;-91
2021/10/17 03:34:44;;;;;;;10.70;3.97;;;11.90;99.90;;;;;;5032571;28;20198;-92
2021/10/17 03:37:11;;;;;;;8.63;4.00;;;11.90;99.90;;;;;;5032431;28;20203;-92
2021/10/17 03:39:39;;;;;;;8.00;4.10;;;11.90;99.90;;;;;;5032620;28;20199;-91
2021/10/17 03:42:06;;;;;;;10.80;4.37;;;11.80;99.90;;;;;;5025835;28;20203;-91
2021/10/17 03:44:33;;;;;;;13.63;4.50;;;11.80;99.90;;;;;;5012264;28;20207;-89
2021/10/17 03:47:00;;;;;;;7.20;4.20;;;11.80;99.90;;;;;;5012139;28;20239;-90
2021/10/17 03:49:27;;;;;;;14.50;4.80;;;11.80;99.90;;;;;;5011759;28;20257;-91
2021/10/17 03:51:54;;;;;;;16.47;5.43;;;11.80;99.90;;;;;;5012409;28;20239;-91
2021/10/17 03:54:21;;;;;;;8.33;4.17;;;11.80;99.90;;;;;;5012294;28;20207;-88
2021/10/17 03:56:49;;;;;;;10.47;4.03;;;11.80;99.90;;;;;;5012439;28;20211;-90
2021/10/17 03:59:16;;;;;;;9.80;4.10;;;11.80;99.90;;;;;;5013681;28;20199;-87
2021/10/17 04:01:43;;;;;;;12.77;4.67;;;11.80;99.90;;;;;;5012173;28;20196;-90
2021/10/17 04:04:10;;;;;;;9.97;4.07;;;11.70;99.90;;;;;;5012315;28;20339;-89
2021/10/17 04:06:37;;;;;;;9.70;3.53;;;11.70;99.90;;;;;;5011561;28;20568;-88
2021/10/17 04:09:05;;;;;;;12.33;4.40;;;11.70;99.90;;;;;;5010004;28;20273;-87
2021/10/17 04:11:32;;;;;;;7.20;4.17;;;11.70;99.90;;;;;;5011004;28;20218;-90
2021/10/17 04:14:00;;;;;;;11.23;5.50;;;11.70;99.90;;;;;;5012194;28;20210;-89
2021/10/17 04:16:27;;;;;;;9.60;4.73;;;11.70;99.90;;;;;;5011882;28;20214;-91
2021/10/17 04:18:54;;;;;;;6.33;3.83;;;11.70;99.90;;;;;;5011730;28;20206;-90
2021/10/17 04:21:21;;;;;;;10.47;4.37;;;11.70;99.90;;;;;;5011850;28;20215;-88
2021/10/17 04:23:48;;;;;;;7.43;4.47;;;11.70;99.90;;;;;;5011983;28;20199;-90
2021/10/17 04:26:14;;;;;;;9.97;4.33;;;11.70;99.90;;;;;;5011821;28;20227;-87
2021/10/17 04:28:41;;;;;;;9.97;4.13;;;11.70;99.90;;;;;;5011678;28;20199;-92
2021/10/17 04:31:10;;;;;;;9.13;4.07;;;11.70;99.90;;;;;;5009652;28;20207;-92
2021/10/17 04:33:37;;;;;;;8.87;4.30;;;11.70;99.90;;;;;;5010998;28;20209;-90
2021/10/17 04:36:04;;;;;;;9.10;4.33;;;11.70;99.90;;;;;;5024318;28;20218;-88
2021/10/17 04:38:31;;;;;;;8.40;4.07;;;11.70;99.90;;;;;;5031050;28;20206;-92
2021/10/17 04:40:58;;;;;;;6.53;3.67;;;11.70;99.90;;;;;;5031457;28;20590;-92
2021/10/17 04:43:25;;;;;;;9.53;4.30;;;11.70;99.90;;;;;;5031945;28;20225;-88
2021/10/17 04:45:52;;;;;;;11.27;4.50;;;11.60;99.90;;;;;;5031533;28;20241;-88
2021/10/17 04:48:20;;;;;;;13.27;4.33;;;11.70;99.90;;;;;;5032726;28;20195;-92
2021/10/17 04:50:47;;;;;;;8.27;4.23;;;11.70;99.90;;;;;;5031120;28;20218;-93
2021/10/17 04:53:14;;;;;;;13.40;4.47;;;11.70;99.90;;;;;;5032275;28;20213;-92
2021/10/17 04:55:41;;;;;;;9.30;4.47;;;11.60;99.90;;;;;;5016144;28;20203;-91
2021/10/17 04:58:07;;;;;;;8.23;4.43;;;11.60;99.90;;;;;;5011417;28;20603;-91
2021/10/17 05:00:34;;;;;;;8.63;4.53;;;11.60;99.90;;;;;;5011519;28;20229;-92
2021/10/17 05:03:01;;;;;;;11.37;4.60;;;11.60;99.90;;;;;;5010545;28;20218;-92
2021/10/17 05:05:29;;;;;;;12.33;5.33;;;11.60;99.90;;;;;;5011633;28;20227;-91
2021/10/17 05:07:56;;;;;;;9.73;5.10;;;11.70;99.90;;;;;;5011466;28;20214;-92
2021/10/17 05:10:23;;;;;;;9.43;4.10;;;11.60;99.90;;;;;;5011465;28;20200;-90
2021/10/17 05:12:50;;;;;;;12.30;4.57;;;11.60;99.90;;;;;;5011423;28;20615;-91
2021/10/17 05:15:16;;;;;;;11.23;4.40;;;11.60;99.90;;;;;;5011784;28;20206;-92
2021/10/17 05:17:43;;;;;;;10.33;4.37;;;11.60;99.90;;;;;;5011273;28;20748;-90
2021/10/17 05:20:11;;;;;;;9.43;4.63;;;11.60;99.90;;;;;;5011170;28;20207;-92
2021/10/17 05:22:40;;;;;;;9.43;4.37;;;11.60;99.90;;;;;;5011386;28;20218;-90
2021/10/17 05:25:07;;;;;;;8.40;4.27;;;11.60;99.90;;;;;;5010696;28;20229;-89
2021/10/17 05:27:34;;;;;;;10.80;5.03;;;11.60;99.90;;;;;;5029463;28;20211;-87
2021/10/17 05:30:01;;;;;;;12.17;5.10;;;11.60;99.90;;;;;;5031106;28;20207;-90
2021/10/17 05:32:27;;;;;;;12.60;5.00;;;11.50;99.90;;;;;;5034800;28;20205;-91
2021/10/17 05:34:54;;;;;;;9.90;5.03;;;11.60;99.90;;;;;;5021682;28;20223;-92
2021/10/17 05:37:21;;;;;;;9.33;4.93;;;11.60;99.90;;;;;;5014128;28;20214;-92
2021/10/17 05:39:49;;;;;;;11.30;4.43;;;11.60;99.90;;;;;;5014349;28;20203;-91
2021/10/17 05:42:16;;;;;;;14.20;6.00;;;11.60;99.90;;;;;;5016295;28;20203;-91
2021/10/17 05:44:43;;;;;;;10.90;5.37;;;11.60;99.90;;;;;;5014699;28;20215;-92
2021/10/17 05:47:09;;;;;;;11.60;5.30;;;11.60;99.90;;;;;;5016204;28;20238;-89
2021/10/17 05:49:37;;;;;;;11.60;5.73;;;11.60;99.90;;;;;;5025899;28;20206;-91
2021/10/17 05:52:05;;;;;;;13.47;6.13;;;11.60;99.90;;;;;;5014259;28;20205;-90
2021/10/17 05:54:32;;;;;;;11.67;6.07;;;11.60;99.90;;;;;;5022669;28;20205;-89
2021/10/17 05:57:00;;;;;;;11.93;6.17;;;11.60;99.90;;;;;;5034378;28;20198;-91
2021/10/17 05:59:27;;;;;;;15.37;6.13;;;11.60;99.90;;;;;;5033930;28;20223;-90
2021/10/17 06:01:54;;;;;;;10.73;5.60;;;11.60;99.90;;;;;;5033836;28;20191;-92
2021/10/17 06:04:20;;;;;;;11.63;5.90;;;11.60;99.90;;;;;;5034267;28;20195;-93
2021/10/17 06:06:47;;;;;;;14.37;6.33;;;11.60;99.90;;;;;;5034011;28;20237;-89
2021/10/17 06:09:14;;;;;;;11.27;6.17;;;11.60;99.90;;;;;;5019343;28;20213;-89
2021/10/17 06:11:41;;;;;;;14.80;6.47;;;11.60;99.90;;;;;;5014483;28;20206;-88
2021/10/17 06:14:09;;;;;;;11.80;6.27;;;11.60;99.90;;;;;;5014535;28;20210;-92
2021/10/17 06:16:36;;;;;;;10.57;5.73;;;11.50;99.90;;;;;;5015531;28;20203;-90
2021/10/17 06:19:03;;;;;;;10.13;5.23;;;11.50;99.90;;;;;;5014054;28;20208;-88
2021/10/17 06:21:30;;;;;;;12.00;6.10;;;11.60;99.90;;;;;;5015373;28;20602;-92
2021/10/17 06:23:57;;;;;;;13.03;7.33;;;11.60;99.90;;;;;;5021354;28;20199;-93
2021/10/17 06:26:24;;;;;;;14.70;7.30;;;11.60;99.90;;;;;;5039517;28;20231;-95
2021/10/17 06:28:51;;;;;;;12.33;6.10;;;11.60;99.90;;;;;;5026502;28;20199;-94
2021/10/17 06:31:19;;;;;;;20.57;7.73;;;11.60;99.90;;;;;;5014878;28;20211;-95
2021/10/17 06:33:46;;;;;;;17.23;8.67;;;11.60;99.90;;;;;;5028110;28;20211;-93
2021/10/17 06:36:13;;;;;;;13.03;6.97;;;11.60;99.90;;;;;;5016534;28;20234;-94
2021/10/17 06:38:40;;;;;;;13.87;7.63;;;11.70;99.90;;;;;;5014030;28;20231;-91
2021/10/17 06:41:07;;;;;;;10.87;6.90;;;11.70;99.90;;;;;;5014873;28;20211;-94
2021/10/17 06:43:34;;;;;;;12.37;6.77;;;11.70;99.90;;;;;;5044726;28;20201;-90
2021/10/17 06:46:01;;;;;;;10.53;7.27;;;11.70;99.90;;;;;;5053085;28;20234;-89
2021/10/17 06:48:29;;;;;;;12.40;6.77;;;11.70;99.90;;;;;;5038769;28;20207;-92
2021/10/17 06:50:56;;;;;;;14.70;7.60;;;11.70;99.90;;;;;;5022529;28;20217;-88
2021/10/17 06:53:22;;;;;;;13.97;7.73;;;11.70;99.90;;;;;;5032122;28;20201;-92
2021/10/17 06:55:49;;;;;;;13.17;7.07;;;11.80;99.90;;;;;;5026914;28;20213;-89
2021/10/17 06:58:16;;;;;;;10.83;6.47;;;11.80;99.90;;;;;;5032485;28;20209;-90
2021/10/17 07:00:43;;;;;;;13.20;6.50;;;11.80;99.90;;;;;;5018045;28;20611;-88
2021/10/17 07:03:10;;;;;;;13.93;7.67;;;11.80;99.90;;;;;;5013035;28;20291;-90
2021/10/17 07:06:08;;;;;;;13.17;7.53;;;11.80;99.90;;;;;;5012190;28;20199;-90
2021/10/17 07:08:35;;;;;;;13.03;7.23;;;11.90;99.90;;;;;;5015764;28;20211;-88
2021/10/17 07:11:02;;;;;;;10.60;6.93;;;11.80;99.90;;;;;;5013584;28;20196;-90
2021/10/17 07:13:29;;;;;;;11.37;7.70;;;11.80;99.90;;;;;;5013718;28;20254;-92
2021/10/17 07:15:55;;;;;;;17.07;6.90;;;11.90;99.90;;;;;;5013177;28;20203;-91
2021/10/17 07:18:23;;;;;;;16.40;7.90;;;11.90;99.90;;;;;;5013162;28;20207;-92
2021/10/17 07:20:50;;;;;;;14.67;7.30;;;11.90;99.90;;;;;;5021539;28;20217;-93
2021/10/17 07:23:19;;;;;;;11.63;7.03;;;11.90;99.90;;;;;;5032763;28;20275;-93
2021/10/17 07:25:46;;;;;;;15.20;7.73;;;12.00;99.90;;;;;;5032141;28;20635;-86
2021/10/17 07:28:13;;;;;;;15.47;8.07;;;12.00;99.90;;;;;;5032562;28;20206;-88
2021/10/17 07:30:40;;;;;;;13.40;7.83;;;12.10;99.90;;;;;;5014130;28;20226;-90
2021/10/17 07:33:07;;;;;;;17.43;7.60;;;12.10;99.90;;;;;;5012554;28;20202;-88
2021/10/17 07:35:34;;;;;;;14.67;7.37;;;12.20;99.90;;;;;;5013426;28;20200;-91
2021/10/17 07:38:01;;;;;;;14.03;7.97;;;12.20;99.90;;;;;;5012144;28;20205;-93
2021/10/17 07:40:30;;;;;;;13.43;8.07;;;12.30;99.90;;;;;;5012331;28;20208;-88
2021/10/17 07:42:56;;;;;;;18.13;8.30;;;12.40;99.90;;;;;;5029783;28;20215;-91
2021/10/17 07:45:23;;;;;;;12.43;6.47;;;12.40;99.90;;;;;;5032692;28;20897;-91
2021/10/17 07:47:50;;;;;;;11.80;6.97;;;12.40;99.90;;;;;;5025953;28;20227;-91
2021/10/17 07:50:17;;;;;;;12.87;7.37;;;12.50;99.90;;;;;;5012731;28;20203;-87
2021/10/17 07:52:44;;;;;;;14.43;7.10;;;12.50;99.90;;;;;;5013954;28;20616;-92
2021/10/17 07:55:11;;;;;;;10.93;6.70;;;12.60;99.90;;;;;;5013716;28;20939;-92
2021/10/17 07:57:53;;;;;;;15.97;6.77;;;12.60;99.90;;;;;;5014095;28;20559;-90
2021/10/17 08:00:21;;;;;;;10.77;6.10;;;12.70;99.90;;;;;;5009923;28;20234;-91
2021/10/17 08:02:49;;;;;;;15.57;7.90;;;12.70;99.90;;;;;;5010416;28;20199;-92
2021/10/17 08:05:16;;;;;;;12.47;6.17;;;12.70;99.90;;;;;;5014707;28;20234;-90
2021/10/17 08:07:43;;;;;;;13.23;6.17;;;12.70;99.90;;;;;;5015248;28;20230;-91
2021/10/17 08:10:11;;;;;;;16.83;7.13;;;12.60;99.90;;;;;;5014837;28;20198;-88
2021/10/17 08:12:39;;;;;;;12.73;6.70;;;12.70;99.90;;;;;;5016192;28;20207;-92
2021/10/17 08:15:09;;;;;;;15.67;7.50;;;12.70;99.90;;;;;;5011328;28;20299;-90
2021/10/17 08:17:37;;;;;;;15.37;6.60;;;12.70;99.90;;;;;;5010143;28;20203;-92
2021/10/17 08:20:06;;;;;;;13.90;6.80;;;12.70;99.90;;;;;;5011994;28;20210;-90
2021/10/17 08:22:34;;;;;;;14.20;6.67;;;12.80;99.90;;;;;;5011434;28;20218;-91
2021/10/17 08:25:02;;;;;;;14.07;6.20;;;12.80;99.90;;;;;;5011437;28;20215;-92
2021/10/17 08:27:29;;;;;;;12.77;6.03;;;12.90;99.90;;;;;;5011722;28;20226;-88
2021/10/17 08:29:56;;;;;;;13.83;6.30;;;12.90;99.90;;;;;;5011786;28;20207;-89
2021/10/17 08:32:24;;;;;;;11.10;5.17;;;12.90;99.90;;;;;;5009561;28;20214;-89
2021/10/17 08:34:51;;;;;;;9.67;5.77;;;13.00;99.90;;;;;;5011085;28;20338;-88
2021/10/17 08:37:18;;;;;;;10.77;5.07;;;13.10;99.90;;;;;;5011974;28;20219;-90
2021/10/17 08:39:45;;;;;;;13.63;5.77;;;13.20;99.90;;;;;;5011706;28;20198;-87
2021/10/17 08:42:12;;;;;;;10.27;5.67;;;13.30;99.90;;;;;;5011298;28;20197;-87
2021/10/17 08:44:40;;;;;;;13.77;5.87;;;13.40;99.90;;;;;;5012013;28;20191;-88
2021/10/17 08:47:07;;;;;;;14.80;5.43;;;13.50;99.90;;;;;;5010537;28;20314;-86
2021/10/17 08:49:36;;;;;;;11.37;5.60;;;13.60;99.90;;;;;;5011307;28;20214;-88
2021/10/17 08:52:10;;;;;;;10.53;4.97;;;13.70;99.90;;;;;;5011406;28;20211;-89
2021/10/17 08:54:38;;;;;;;9.67;4.70;;;13.80;99.90;;;;;;5011397;28;20210;-90
2021/10/17 08:57:05;;;;;;;8.97;5.07;;;13.80;99.90;;;;;;5027608;28;20210;-89
2021/10/17 08:59:32;;;;;;;9.67;4.70;;;13.90;99.90;;;;;;5014874;28;20218;-89
2021/10/17 09:02:00;;;;;;;16.57;4.70;;;13.90;99.90;;;;;;5010861;28;20228;-89
2021/10/17 09:04:27;;;;;;;9.90;4.13;;;13.90;99.90;;;;;;5011541;28;20206;-88
2021/10/17 09:06:56;;;;;;;9.07;4.50;;;13.90;99.90;;;;;;5024663;28;20983;-88
2021/10/17 09:09:22;;;;;;;9.97;5.03;;;13.90;99.90;;;;;;5035124;28;20190;-88
2021/10/17 09:11:51;;;;;;;9.57;4.57;;;13.90;99.90;;;;;;5034427;28;20213;-89
2021/10/17 09:14:22;;;;;;;9.53;4.53;;;14.00;99.90;;;;;;5029025;28;20215;-89
2021/10/17 09:16:51;;;;;;;10.50;4.27;;;14.00;99.90;;;;;;5014389;28;20258;-88
2021/10/17 09:19:23;;;;;;;10.20;4.00;;;14.10;99.90;;;;;;5018182;28;20729;-89
2021/10/17 09:21:57;;;;;;;9.67;4.20;;;14.20;99.90;;;;;;5033811;28;20203;-90
2021/10/17 09:24:25;;;;;;;8.83;3.87;;;14.30;99.90;;;;;;5031590;28;20249;-88
2021/10/17 09:27:11;;;;;;;8.40;4.27;;;14.30;99.90;;;;;;5012346;28;20262;-88
2021/10/17 09:29:38;;;;;;;8.57;4.37;;;14.30;99.90;;;;;;5015965;28;20199;-87
2021/10/17 09:32:15;;;;;;;9.27;4.38;;;14.30;99.90;;;;;;5026757;28;20203;-87
2021/10/17 09:34:51;;;;;;;8.38;3.72;;;14.40;99.90;;;;;;5014896;28;20198;-89
2021/10/17 09:37:20;;;;;;;4.65;3.17;;;14.40;99.90;;;;;;5014733;28;20195;-89
2021/10/17 09:39:52;;;;;;;10.07;4.20;;;14.40;99.90;;;;;;5013594;28;20611;-84
2021/10/17 09:42:20;;;;;;;7.45;4.13;;;14.50;99.90;;;;;;5014097;28;20215;-88
2021/10/17 09:44:47;;;;;;;11.02;4.18;;;14.50;99.90;;;;;;5014244;28;20208;-89
2021/10/17 09:47:15;;;;;;;8.82;4.38;;;14.60;99.90;;;;;;5014005;28;20245;-88
2021/10/17 09:49:41;;;;;;;9.17;3.87;;;14.60;99.90;;;;;;5014465;28;20206;-89
2021/10/17 09:52:16;;;;;;;5.78;3.72;;;14.70;99.90;;;;;;5013077;28;20203;-87
2021/10/17 09:54:47;;;;;;;5.75;3.20;;;14.80;99.90;;;;;;5014039;28;20214;-88
2021/10/17 09:57:14;;;;;;;8.05;3.38;;;14.80;99.90;;;;;;5014468;28;20199;-89
2021/10/17 09:59:41;;;;;;;6.85;3.58;;;14.90;99.90;;;;;;5011066;28;20214;-90
2021/10/17 10:02:13;;;;;;;6.65;3.67;;;14.90;99.90;;;;;;5012248;28;20211;-89
2021/10/17 10:04:41;;;;;;;12.52;4.13;;;15.00;99.90;;;;;;5014465;28;20202;-89
2021/10/17 10:07:09;;;;;;;10.80;3.83;;;15.00;99.90;;;;;;5013341;28;20219;-86
2021/10/17 10:09:36;;;;;;;4.55;3.40;;;15.00;99.90;;;;;;5013994;28;20246;-89
2021/10/17 10:12:06;;;;;;;7.18;3.90;;;15.10;99.90;;;;;;5013623;28;20503;-91
2021/10/17 10:14:33;;;;;;;8.23;3.83;;;15.10;99.90;;;;;;5013460;28;20211;-89
2021/10/17 10:17:02;;;;;;;5.93;3.53;;;15.10;99.90;;;;;;5013186;28;20358;-87
2021/10/17 10:19:31;;;;;;;7.60;4.15;;;15.10;99.90;;;;;;5013918;28;20369;-88
2021/10/17 10:21:59;;;;;;;7.03;3.55;;;15.10;99.90;;;;;;5012935;28;20207;-87
2021/10/17 10:24:26;;;;;;;8.95;4.68;;;15.20;99.90;;;;;;5013614;28;20199;-87
2021/10/17 10:26:53;;;;;;;7.35;3.78;;;15.20;99.90;;;;;;5012910;28;20234;-88
2021/10/17 10:29:26;;;;;;;8.95;3.95;;;15.30;99.90;;;;;;5013304;28;20211;-86
2021/10/17 10:31:55;;;;;;;8.48;4.00;;;15.30;99.90;;;;;;5013688;28;20206;-87
2021/10/17 10:34:51;;;;;;;7.78;3.53;;;15.40;99.90;;;;;;5020728;28;20195;-88
2021/10/17 10:37:20;;;;;;;7.18;3.70;;;15.40;99.90;;;;;;5033105;28;20203;-87
2021/10/17 10:40:13;;;;;;;6.60;3.55;;;15.40;99.90;;;;;;5013426;28;20215;-88
2021/10/17 10:42:41;;;;;;;7.35;4.05;;;15.40;99.90;;;;;;5013149;28;20203;-88
2021/10/17 10:45:35;;;;;;;9.40;4.03;;;15.30;99.90;;;;;;5024170;28;20213;-86
2021/10/17 10:48:22;;;;;;;7.45;3.50;;;15.40;99.90;;;;;;5029113;28;20549;-88
2021/10/17 10:50:52;;;;;;;13.95;5.25;;;15.30;99.90;;;;;;5016729;28;20595;-89
2021/10/17 10:53:52;;;;;;;8.70;4.35;;;15.30;99.90;;;;;;5012596;28;20588;-89
2021/10/17 10:56:48;;;;;;;8.02;3.30;;;15.30;99.90;;;;;;5012441;28;20203;-90
2021/10/17 10:59:17;;;;;;;7.88;4.30;;;15.20;99.90;;;;;;4977568;28;20285;-89
2021/10/17 11:01:54;;;;;;;11.32;4.57;;;15.20;99.90;;;;;;5010622;28;20212;-91
2021/10/17 11:05:04;;;;;;;10.73;4.03;;;15.20;99.90;;;;;;5018546;28;20218;-91
2021/10/17 11:07:39;;;;;;;10.00;4.53;;;15.20;99.90;;;;;;5015911;28;20241;-90
2021/10/17 11:10:36;;;;;;;8.50;4.03;;;15.20;99.90;;;;;;5027590;28;20284;-89
2021/10/17 11:13:04;;;;;;;8.65;4.53;;;15.30;99.90;;;;;;5024108;28;20221;-90
2021/10/17 11:15:32;;;;;;;8.25;4.50;;;15.30;99.90;;;;;;5016802;28;20210;-91
2021/10/17 11:18:04;;;;;;;10.98;4.65;;;15.30;99.90;;;;;;5022670;28;20208;-90
2021/10/17 11:20:34;;;;;;;9.82;4.90;;;15.30;99.90;;;;;;5029729;28;20234;-91
2021/10/17 11:23:03;;;;;;;7.03;4.15;;;15.30;99.90;;;;;;5019062;28;20249;-88
2021/10/17 11:25:30;;;;;;;7.53;4.30;;;15.40;99.90;;;;;;5022114;28;20515;-90
2021/10/17 11:27:58;;;;;;;8.50;4.65;;;15.40;99.90;;;;;;5015272;28;20223;-89
2021/10/17 11:30:27;;;;;;;6.95;3.75;;;15.40;99.90;;;;;;5016990;28;20875;-89
2021/10/17 11:32:54;;;;;;;7.07;4.03;;;15.40;99.90;;;;;;5015696;28;20211;-89
2021/10/17 11:35:31;;;;;;;9.57;4.57;;;15.50;99.90;;;;;;5013512;28;20203;-90
2021/10/17 11:38:00;;;;;;;7.75;3.95;;;15.60;99.90;;;;;;5023391;28;20218;-91
2021/10/17 11:40:27;;;;;;;7.68;4.38;;;15.70;99.90;;;;;;5020903;28;20210;-91
2021/10/17 11:42:57;;;;;;;7.63;3.42;;;15.80;99.90;;;;;;5016995;28;20212;-89
2021/10/17 11:45:34;;;;;;;10.00;4.00;;;15.80;99.90;;;;;;5014916;28;20219;-90
2021/10/17 11:48:03;;;;;;;7.45;3.90;;;15.90;99.90;;;;;;5004772;28;20243;-91
2021/10/17 11:50:34;;;;;;;5.70;3.20;;;15.90;99.90;;;;;;5004539;28;20223;-87
2021/10/17 11:53:02;;;;;;;7.28;4.28;;;16.00;99.90;;;;;;4994622;28;20217;-89
2021/10/17 11:55:31;;;;;;;8.20;3.70;;;16.10;99.90;;;;;;5005840;28;20940;-88
2021/10/17 11:57:58;;;;;;;6.15;4.00;;;16.30;99.90;;;;;;5006609;28;20217;-89
2021/10/17 12:00:26;;;;;;;10.82;4.00;;;16.50;99.90;;;;;;5010731;28;20207;-89
2021/10/17 12:02:56;;;;;;;8.35;3.53;;;16.60;99.90;;;;;;5010911;28;20937;-89
2021/10/17 12:05:25;;;;;;;7.15;3.28;;;16.80;99.90;;;;;;5011759;28;20297;-88
2021/10/17 12:07:56;;;;;;;7.68;3.80;;;16.90;99.90;;;;;;5008598;28;20233;-87
2021/10/17 12:10:24;;;;;;;8.75;4.55;;;16.90;99.90;;;;;;4992006;28;20239;-89
2021/10/17 12:12:51;;;;;;;5.15;3.33;;;16.90;99.90;;;;;;4992209;28;20243;-90
2021/10/17 12:15:18;;;;;;;6.20;3.80;;;16.80;99.90;;;;;;5008605;28;20503;-90
2021/10/17 12:17:56;;;;;;;7.72;3.63;;;16.90;99.90;;;;;;5011491;28;20199;-90
2021/10/17 12:20:23;;;;;;;6.15;3.35;;;16.90;99.90;;;;;;5011548;28;20230;-90
2021/10/17 12:22:50;;;;;;;8.27;3.88;;;16.90;99.90;;;;;;5011377;28;20722;-91
2021/10/17 12:25:20;;;;;;;5.65;3.30;;;17.00;99.90;;;;;;5011488;28;20222;-91
2021/10/17 12:27:49;;;;;;;5.97;3.65;;;17.10;99.90;;;;;;5011124;28;20223;-92
2021/10/17 12:30:19;;;;;;;7.13;3.90;;;17.10;99.90;;;;;;4999502;28;20238;-87
2021/10/17 12:32:48;;;;;;;6.07;3.50;;;17.10;99.90;;;;;;4992167;28;20204;-89
2021/10/17 12:35:33;;;;;;;6.90;4.32;;;17.00;99.90;;;;;;4990925;28;20204;-89
2021/10/17 12:38:08;;;;;;;4.72;3.67;;;17.00;99.90;;;;;;4991899;28;20290;-91
2021/10/17 12:40:51;;;;;;;5.95;3.95;;;17.00;99.90;;;;;;4994482;28;20751;-92
2021/10/17 12:43:24;;;;;;;9.30;4.25;;;17.10;99.90;;;;;;4996563;28;20480;-91
2021/10/17 12:45:51;;;;;;;6.28;4.20;;;17.00;99.90;;;;;;4996226;28;20263;-90
2021/10/17 12:48:21;;;;;;;6.45;3.60;;;16.90;99.90;;;;;;5015102;28;20504;-91